Time;durP1;ratioP1;P1;durP2;ratioP2;P2;SDS_P1;SDS_P2;PMS_P1;PMS_P2;Temp;Humidity;BMP_temperature;BMP_pressure;BME280_temperature;BME280_humidity;BME280_pressure;Samples;Min_cycle;Max_cycle;Signal;HPM_P1;HPM_P2
2022/01/15 00:00:02;;;;;;;44.80;31.52;;;-0.10;99.90;;;;;;5015719;28;20022;-78
2022/01/15 00:02:28;;;;;;;46.10;32.58;;;-0.10;99.90;;;;;;5015268;28;20033;-78
2022/01/15 00:04:53;;;;;;;45.38;33.00;;;-0.10;99.90;;;;;;5015664;28;20025;-78
2022/01/15 00:07:19;;;;;;;50.10;31.83;;;-0.10;99.90;;;;;;5015555;28;20474;-78
2022/01/15 00:09:49;;;;;;;44.80;31.60;;;-0.10;99.90;;;;;;5016614;28;20022;-78
2022/01/15 00:12:15;;;;;;;47.63;30.92;;;0.00;99.90;;;;;;5024489;28;20057;-78
2022/01/15 00:14:42;;;;;;;45.45;31.17;;;-0.10;99.90;;;;;;5023152;28;20026;-78
2022/01/15 00:17:19;;;;;;;46.25;31.77;;;-0.10;99.90;;;;;;5023297;28;20115;-78
2022/01/15 00:19:45;;;;;;;46.92;29.73;;;-0.20;99.90;;;;;;5022225;28;20026;-78
2022/01/15 00:22:15;;;;;;;48.55;30.70;;;-0.10;99.90;;;;;;5023561;28;20406;-78
2022/01/15 00:24:42;;;;;;;45.92;31.80;;;-0.30;99.90;;;;;;5016319;28;20029;-77
2022/01/15 00:27:08;;;;;;;50.33;30.95;;;-0.40;99.90;;;;;;5022267;28;20505;-77
2022/01/15 00:29:34;;;;;;;40.90;27.90;;;-0.30;99.90;;;;;;5022855;28;20022;-77
2022/01/15 00:32:01;;;;;;;48.45;31.05;;;-0.30;99.90;;;;;;5023058;28;20052;-77
2022/01/15 00:34:28;;;;;;;38.55;27.38;;;-0.30;99.90;;;;;;5022246;28;20033;-78
2022/01/15 00:36:54;;;;;;;39.85;27.50;;;-0.30;99.90;;;;;;5021759;28;20427;-78
2022/01/15 00:39:20;;;;;;;44.28;27.95;;;-0.30;99.90;;;;;;5015765;28;20029;-78
2022/01/15 00:41:45;;;;;;;43.78;27.98;;;-0.30;99.90;;;;;;5015371;28;20041;-77
2022/01/15 00:44:11;;;;;;;42.65;28.02;;;-0.30;99.90;;;;;;5022767;28;20045;-77
2022/01/15 00:46:36;;;;;;;37.17;24.67;;;-0.40;99.90;;;;;;5024032;28;20006;-78
2022/01/15 00:49:03;;;;;;;42.22;27.27;;;-0.50;99.90;;;;;;5033530;28;20584;-78
2022/01/15 00:51:28;;;;;;;42.47;27.15;;;-0.40;99.90;;;;;;5033065;28;20117;-76
2022/01/15 00:53:54;;;;;;;42.50;27.15;;;-0.40;99.90;;;;;;5033275;28;20029;-77
2022/01/15 00:56:20;;;;;;;38.20;27.25;;;-0.40;99.90;;;;;;5032066;28;20289;-76
2022/01/15 00:58:45;;;;;;;38.05;27.00;;;-0.40;99.90;;;;;;5031994;28;20029;-78
2022/01/15 01:01:11;;;;;;;38.75;25.08;;;-0.40;99.90;;;;;;5016142;28;20524;-78
2022/01/15 01:03:36;;;;;;;38.85;27.63;;;-0.40;99.90;;;;;;5014052;28;20026;-78
2022/01/15 01:06:02;;;;;;;38.03;26.02;;;-0.40;99.90;;;;;;5014042;28;20022;-78
2022/01/15 01:08:28;;;;;;;39.28;28.95;;;-0.40;99.90;;;;;;5012746;28;20385;-78
2022/01/15 01:11:03;;;;;;;37.60;26.40;;;-0.40;99.90;;;;;;5018673;28;20508;-77
2022/01/15 01:24:13;;;;;;;36.28;25.52;;;-0.10;99.90;;;;;;5022971;28;20509;-78
2022/01/15 01:26:52;;;;;;;131.63;70.50;;;0.10;99.90;;;;;;5022410;28;20026;-78
2022/01/15 01:32:08;;;;;;;87.85;53.08;;;0.10;99.90;;;;;;5021462;28;20033;-78
2022/01/15 01:34:37;;;;;;;38.80;24.95;;;0.10;99.90;;;;;;5021294;28;20018;-78
2022/01/15 01:37:19;;;;;;;37.78;26.27;;;-0.10;99.90;;;;;;5016601;28;20057;-77
2022/01/15 01:39:50;;;;;;;38.00;25.65;;;-0.30;99.90;;;;;;5018023;28;20022;-78
2022/01/15 01:45:04;;;;;;;39.10;26.83;;;-0.50;99.90;;;;;;5021779;28;20037;-78
2022/01/15 01:47:39;;;;;;;40.70;26.90;;;-0.60;99.90;;;;;;5016431;28;20028;-77
2022/01/15 01:50:07;;;;;;;37.40;24.88;;;-0.70;99.90;;;;;;5015961;28;20533;-77
2022/01/15 01:52:33;;;;;;;38.05;25.00;;;-0.60;99.90;;;;;;5017337;28;20022;-77
2022/01/15 01:54:58;;;;;;;36.42;25.60;;;-0.60;99.90;;;;;;5016535;28;20029;-77
2022/01/15 01:57:24;;;;;;;38.20;26.05;;;-0.60;99.90;;;;;;5015998;28;20022;-78
2022/01/15 01:59:50;;;;;;;32.53;24.65;;;-0.60;99.90;;;;;;5015834;28;20477;-77
2022/01/15 02:02:15;;;;;;;30.90;23.50;;;-0.60;99.90;;;;;;5016845;28;20038;-78
2022/01/15 02:04:41;;;;;;;30.83;22.88;;;-0.60;99.90;;;;;;5015410;28;20034;-78
2022/01/15 02:07:07;;;;;;;38.03;21.90;;;-0.70;99.90;;;;;;5016621;28;20037;-78
2022/01/15 02:09:32;;;;;;;41.08;24.10;;;-0.60;99.90;;;;;;5017184;28;20026;-79
2022/01/15 02:11:58;;;;;;;32.92;24.17;;;-0.60;99.90;;;;;;5015159;28;20018;-77
2022/01/15 02:14:28;;;;;;;35.88;25.95;;;-0.70;99.90;;;;;;5015739;28;20601;-76
2022/01/15 02:16:54;;;;;;;36.83;24.83;;;-0.70;99.90;;;;;;5015584;28;20555;-76
2022/01/15 02:19:19;;;;;;;36.78;23.75;;;-0.70;99.90;;;;;;5031900;28;20045;-77
2022/01/15 02:24:17;;;;;;;38.58;26.15;;;-0.70;99.90;;;;;;5015564;28;20029;-77
2022/01/15 02:26:42;;;;;;;38.45;26.05;;;-0.70;99.90;;;;;;5015346;28;20034;-78
2022/01/15 02:29:09;;;;;;;45.53;25.38;;;-0.80;99.90;;;;;;5015927;28;20088;-77
2022/01/15 02:31:36;;;;;;;37.60;25.33;;;-0.90;99.90;;;;;;5015395;28;20080;-76
2022/01/15 02:34:04;;;;;;;36.78;24.70;;;-0.90;99.90;;;;;;5015916;28;20101;-78
2022/01/15 02:36:33;;;;;;;34.97;24.10;;;-0.90;99.90;;;;;;5016077;28;20017;-77
2022/01/15 02:38:59;;;;;;;37.90;26.48;;;-0.90;99.90;;;;;;5018117;28;20026;-76
2022/01/15 02:41:25;;;;;;;40.22;24.98;;;-0.80;99.90;;;;;;5017776;28;20061;-77
2022/01/15 02:43:51;;;;;;;37.08;24.95;;;-0.90;99.90;;;;;;5020040;28;20493;-76
2022/01/15 02:48:47;;;;;;;36.10;24.60;;;-0.90;99.90;;;;;;5019658;28;20028;-78
2022/01/15 02:51:13;;;;;;;41.58;24.42;;;-0.80;99.90;;;;;;5016739;28;20036;-77
2022/01/15 02:53:39;;;;;;;37.72;23.92;;;-0.90;99.90;;;;;;5016340;28;20025;-77
2022/01/15 02:56:05;;;;;;;36.83;23.80;;;-0.90;99.90;;;;;;5016020;28;20517;-77
2022/01/15 02:58:30;;;;;;;34.70;23.20;;;-0.90;99.90;;;;;;5015441;28;20045;-76
2022/01/15 03:00:56;;;;;;;38.67;23.83;;;-0.90;99.90;;;;;;5015113;28;20401;-76
2022/01/15 03:03:21;;;;;;;35.70;23.45;;;-0.90;99.90;;;;;;5015542;28;20036;-77
2022/01/15 03:05:47;;;;;;;31.23;21.88;;;-0.90;99.90;;;;;;5014112;28;20036;-77
2022/01/15 03:08:13;;;;;;;34.13;24.30;;;-0.90;99.90;;;;;;5015314;28;20114;-77
2022/01/15 03:10:39;;;;;;;38.38;23.27;;;-0.90;99.90;;;;;;5017201;28;20048;-77
2022/01/15 03:13:13;;;;;;;35.50;24.60;;;-0.90;99.90;;;;;;5033508;28;20120;-77
2022/01/15 03:15:40;;;;;;;35.65;23.77;;;-0.90;99.90;;;;;;5016176;28;20029;-77
2022/01/15 03:18:06;;;;;;;33.33;23.40;;;-0.90;99.90;;;;;;5016129;28;20137;-77
2022/01/15 03:20:32;;;;;;;37.47;24.77;;;-0.80;99.90;;;;;;5015491;28;20053;-78
2022/01/15 03:22:57;;;;;;;33.83;23.55;;;-0.80;99.90;;;;;;5015069;28;20026;-77
2022/01/15 03:25:23;;;;;;;35.88;24.58;;;-0.90;99.90;;;;;;5014724;28;20022;-77
2022/01/15 03:27:49;;;;;;;38.17;24.67;;;-1.00;99.90;;;;;;5014496;28;20124;-77
2022/01/15 03:30:15;;;;;;;38.00;24.77;;;-1.00;99.90;;;;;;5014662;28;20363;-77
2022/01/15 03:32:43;;;;;;;34.78;26.27;;;-1.00;99.90;;;;;;5024403;28;20093;-77
2022/01/15 03:35:19;;;;;;;34.40;24.67;;;-1.00;99.90;;;;;;5039108;28;20056;-77
2022/01/15 03:37:45;;;;;;;40.40;22.70;;;-1.00;99.90;;;;;;5039223;28;20025;-77
2022/01/15 03:40:12;;;;;;;38.67;23.13;;;-1.00;99.90;;;;;;5039107;28;20046;-78
2022/01/15 03:42:38;;;;;;;33.25;23.63;;;-1.00;99.90;;;;;;5037530;28;20014;-78
2022/01/15 03:45:05;;;;;;;37.97;23.90;;;-1.00;99.90;;;;;;5020141;28;20132;-77
2022/01/15 03:47:30;;;;;;;36.63;24.98;;;-1.00;99.90;;;;;;5014905;28;20032;-77
2022/01/15 03:49:56;;;;;;;36.53;23.33;;;-1.00;99.90;;;;;;5015051;28;20022;-77
2022/01/15 03:52:21;;;;;;;39.78;25.00;;;-1.00;99.90;;;;;;5014258;28;20068;-78
2022/01/15 03:54:47;;;;;;;32.53;23.88;;;-1.00;99.90;;;;;;5016107;28;20026;-77
2022/01/15 03:57:12;;;;;;;34.85;23.88;;;-0.80;99.90;;;;;;5020855;28;20026;-77
2022/01/15 03:59:38;;;;;;;34.90;22.67;;;-0.80;99.90;;;;;;5019886;28;20026;-78
2022/01/15 04:02:04;;;;;;;34.13;21.83;;;-0.80;99.90;;;;;;5019198;28;20510;-78
2022/01/15 04:04:29;;;;;;;32.60;22.65;;;-1.00;99.90;;;;;;5021304;28;20038;-77
2022/01/15 04:06:55;;;;;;;32.83;23.02;;;-1.00;99.90;;;;;;5018068;28;20513;-78
2022/01/15 04:09:20;;;;;;;30.80;22.23;;;-1.10;99.90;;;;;;5015522;28;20071;-78
2022/01/15 04:11:46;;;;;;;31.40;23.83;;;-1.00;99.90;;;;;;5013855;28;20053;-77
2022/01/15 04:14:12;;;;;;;35.72;22.48;;;-1.00;99.90;;;;;;5013465;28;20470;-77
2022/01/15 04:16:38;;;;;;;35.30;23.17;;;-1.00;99.90;;;;;;5013711;28;20022;-78
2022/01/15 04:19:06;;;;;;;40.28;21.73;;;-0.90;99.90;;;;;;5013023;28;20036;-78
2022/01/15 04:21:33;;;;;;;25.75;20.63;;;-1.00;99.90;;;;;;5014016;28;20033;-77
2022/01/15 04:23:58;;;;;;;29.60;21.33;;;-1.00;99.90;;;;;;5016253;28;20022;-77
2022/01/15 04:26:25;;;;;;;30.05;19.65;;;-1.00;99.90;;;;;;5012204;28;20026;-77
2022/01/15 04:28:52;;;;;;;27.83;19.35;;;-1.00;99.90;;;;;;5012371;28;20030;-76
2022/01/15 04:31:18;;;;;;;27.98;19.13;;;-1.10;99.90;;;;;;5013624;28;20366;-78
2022/01/15 04:33:44;;;;;;;26.73;20.25;;;-1.10;99.90;;;;;;5013680;28;20029;-77
2022/01/15 04:36:09;;;;;;;29.85;20.85;;;-1.20;99.90;;;;;;5014192;28;20101;-77
2022/01/15 04:38:38;;;;;;;26.45;19.05;;;-1.20;99.90;;;;;;5013829;28;20026;-77
2022/01/15 04:41:04;;;;;;;29.55;19.20;;;-1.20;99.90;;;;;;5011952;28;20030;-78
2022/01/15 04:43:30;;;;;;;27.35;18.92;;;-1.20;99.90;;;;;;5012133;28;20080;-78
2022/01/15 04:45:56;;;;;;;30.98;19.90;;;-1.10;99.90;;;;;;5013207;28;20489;-77
2022/01/15 04:48:21;;;;;;;26.67;19.05;;;-1.20;99.90;;;;;;5012956;28;20022;-77
2022/01/15 04:50:47;;;;;;;32.75;20.83;;;-1.20;99.90;;;;;;5012219;28;20022;-78
2022/01/15 04:53:12;;;;;;;33.25;21.77;;;-1.20;99.90;;;;;;5013455;28;20022;-78
2022/01/15 04:55:38;;;;;;;25.70;18.95;;;-1.30;99.90;;;;;;5012400;28;20025;-78
2022/01/15 04:58:05;;;;;;;24.90;18.67;;;-1.20;99.90;;;;;;5014155;28;20022;-78
2022/01/15 05:00:32;;;;;;;25.98;19.25;;;-1.30;99.90;;;;;;5013822;28;20076;-78
2022/01/15 05:02:58;;;;;;;27.73;19.40;;;-1.20;99.90;;;;;;5013886;28;20049;-78
2022/01/15 05:05:25;;;;;;;26.48;19.45;;;-1.20;99.90;;;;;;5036534;28;20018;-78
2022/01/15 05:07:54;;;;;;;25.60;18.83;;;-1.10;99.90;;;;;;5027915;28;20033;-77
2022/01/15 05:10:24;;;;;;;23.73;17.73;;;-1.00;99.90;;;;;;5014123;28;20029;-78
2022/01/15 05:12:50;;;;;;;28.58;21.90;;;-1.10;99.90;;;;;;5013510;28;20168;-78
2022/01/15 05:15:18;;;;;;;27.33;19.90;;;-1.20;99.90;;;;;;5012878;28;20029;-78
2022/01/15 05:17:45;;;;;;;25.92;20.05;;;-1.20;99.90;;;;;;5015637;28;20069;-77
2022/01/15 05:20:16;;;;;;;34.63;21.52;;;-1.20;99.90;;;;;;5018982;28;20026;-78
2022/01/15 05:22:41;;;;;;;;;;;-1.30;99.90;;;;;;5014505;28;20535;-77
2022/01/15 05:25:07;;;;;;;31.95;19.17;;;-1.20;99.90;;;;;;5014114;28;19909;-78
2022/01/15 05:27:36;;;;;;;29.65;20.38;;;-1.30;99.90;;;;;;5013419;28;20112;-78
2022/01/15 05:30:05;;;;;;;30.98;21.77;;;-1.30;99.90;;;;;;5014071;28;20026;-78
2022/01/15 05:32:31;;;;;;;30.45;20.83;;;-1.30;99.90;;;;;;5014076;28;20025;-78
2022/01/15 05:34:57;;;;;;;29.08;19.95;;;-1.30;99.90;;;;;;5013819;28;20045;-78
2022/01/15 05:37:24;;;;;;;29.92;20.65;;;-1.30;99.90;;;;;;5014924;28;20033;-78
2022/01/15 05:39:49;;;;;;;28.10;20.23;;;-1.30;99.90;;;;;;5012877;28;20025;-78
2022/01/15 05:42:15;;;;;;;31.05;20.55;;;-1.30;99.90;;;;;;5013667;28;20480;-77
2022/01/15 05:44:41;;;;;;;29.67;21.30;;;-1.30;99.90;;;;;;5025997;28;20041;-77
2022/01/15 05:47:07;;;;;;;27.42;19.70;;;-1.40;99.90;;;;;;5028765;28;20049;-78
2022/01/15 05:49:33;;;;;;;30.73;19.85;;;-1.40;99.90;;;;;;5028841;28;20052;-78
2022/01/15 05:51:59;;;;;;;28.88;20.05;;;-1.30;99.90;;;;;;5024772;28;20120;-77
2022/01/15 05:54:24;;;;;;;28.02;18.38;;;-1.30;99.90;;;;;;5014699;28;20052;-78
2022/01/15 05:56:50;;;;;;;25.25;18.92;;;-1.30;99.90;;;;;;5012588;28;20390;-78
2022/01/15 05:59:15;;;;;;;26.48;18.88;;;-1.40;99.90;;;;;;5014020;28;20032;-78
2022/01/15 06:01:41;;;;;;;29.73;21.20;;;-1.40;99.90;;;;;;5012500;28;20521;-78
2022/01/15 06:04:06;;;;;;;27.90;19.85;;;-1.30;99.90;;;;;;5017621;28;20036;-78
2022/01/15 06:06:32;;;;;;;29.10;20.15;;;-1.20;99.90;;;;;;5019331;28;20084;-78
2022/01/15 06:08:58;;;;;;;27.95;19.65;;;-1.20;99.90;;;;;;5016976;28;20053;-78
2022/01/15 06:11:24;;;;;;;24.70;18.65;;;-1.30;99.90;;;;;;5015673;28;20026;-78
2022/01/15 06:13:50;;;;;;;31.75;20.25;;;-1.30;99.90;;;;;;5016798;28;20018;-78
2022/01/15 06:16:16;;;;;;;25.90;19.35;;;-1.30;99.90;;;;;;5017618;28;20596;-78
2022/01/15 06:18:42;;;;;;;26.73;18.63;;;-1.30;99.90;;;;;;5022235;28;20026;-79
2022/01/15 06:21:08;;;;;;;23.70;18.23;;;-1.30;99.90;;;;;;5026093;28;20083;-78
2022/01/15 06:23:34;;;;;;;30.83;19.23;;;-1.20;99.90;;;;;;5027559;28;20056;-78
2022/01/15 06:26:00;;;;;;;25.65;18.88;;;-1.20;99.90;;;;;;5028662;28;20060;-79
2022/01/15 06:28:26;;;;;;;29.35;20.52;;;-1.40;99.90;;;;;;5021810;28;20038;-78
2022/01/15 06:30:51;;;;;;;33.67;19.48;;;-1.50;99.90;;;;;;5022001;28;20064;-78
2022/01/15 06:33:17;;;;;;;28.90;21.52;;;-1.60;99.90;;;;;;5021870;28;20019;-78
2022/01/15 06:35:43;;;;;;;30.73;20.75;;;-1.60;99.90;;;;;;5017682;28;20073;-77
2022/01/15 06:38:09;;;;;;;31.90;21.75;;;-1.50;99.90;;;;;;5016471;28;20026;-78
2022/01/15 06:40:35;;;;;;;28.60;20.90;;;-1.60;99.90;;;;;;5017074;28;20021;-78
2022/01/15 06:43:01;;;;;;;30.92;21.15;;;-1.60;99.90;;;;;;5017811;28;20029;-77
2022/01/15 06:45:28;;;;;;;35.25;24.17;;;-1.60;99.90;;;;;;5018377;28;20116;-78
2022/01/15 06:47:54;;;;;;;36.63;21.85;;;-1.60;99.90;;;;;;5017172;28;20036;-78
2022/01/15 06:50:22;;;;;;;36.40;23.50;;;-1.70;99.90;;;;;;5017573;28;20405;-78
2022/01/15 06:52:48;;;;;;;34.03;22.08;;;-1.70;99.90;;;;;;5016708;28;20026;-78
2022/01/15 06:55:14;;;;;;;32.05;22.05;;;-1.80;99.90;;;;;;5017392;28;20117;-77
2022/01/15 06:57:39;;;;;;;30.67;20.58;;;-1.80;99.90;;;;;;5017155;28;20557;-78
2022/01/15 07:00:07;;;;;;;35.95;20.25;;;-1.70;99.90;;;;;;5015531;28;20045;-78
2022/01/15 07:02:33;;;;;;;36.85;21.20;;;-1.70;99.90;;;;;;5015757;28;20551;-77
2022/01/15 07:04:59;;;;;;;35.88;21.63;;;-1.70;99.90;;;;;;5014775;28;20124;-77
2022/01/15 07:07:24;;;;;;;30.27;20.60;;;-1.60;99.90;;;;;;5014297;28;20034;-76
2022/01/15 07:09:50;;;;;;;29.60;19.77;;;-1.70;99.90;;;;;;5016581;28;20018;-78
2022/01/15 07:12:16;;;;;;;30.90;21.20;;;-1.70;99.90;;;;;;5016807;28;20025;-78
2022/01/15 07:14:41;;;;;;;31.40;20.95;;;-1.70;99.90;;;;;;5016902;28;20049;-78
2022/01/15 07:17:07;;;;;;;30.17;21.92;;;-1.70;99.90;;;;;;5015463;28;20026;-77
2022/01/15 07:19:33;;;;;;;32.55;19.75;;;-1.70;99.90;;;;;;5014554;28;20033;-78
2022/01/15 07:21:58;;;;;;;29.02;21.20;;;-1.70;99.90;;;;;;5015776;28;20034;-78
2022/01/15 07:24:24;;;;;;;35.15;22.63;;;-1.70;99.90;;;;;;5015976;28;20033;-77
2022/01/15 07:26:51;;;;;;;28.63;19.70;;;-1.60;99.90;;;;;;5014323;28;20478;-79
2022/01/15 07:29:16;;;;;;;31.55;20.60;;;-1.50;99.90;;;;;;5014471;28;20044;-77
2022/01/15 07:31:45;;;;;;;37.05;20.80;;;-1.50;99.90;;;;;;5014937;28;20113;-78
2022/01/15 07:34:11;;;;;;;33.88;23.48;;;-1.50;99.90;;;;;;5016532;28;20029;-78
2022/01/15 07:36:37;;;;;;;31.23;21.67;;;-1.40;99.90;;;;;;5020883;28;20030;-77
2022/01/15 07:39:04;;;;;;;30.63;21.10;;;-1.40;99.90;;;;;;5017416;28;20030;-77
2022/01/15 07:41:30;;;;;;;33.50;21.50;;;-1.40;99.90;;;;;;5015061;28;20025;-77
2022/01/15 07:43:56;;;;;;;34.30;22.60;;;-1.30;99.90;;;;;;5014763;28;20056;-78
2022/01/15 07:46:21;;;;;;;31.35;21.13;;;-1.30;99.90;;;;;;5015828;28;20033;-78
2022/01/15 07:48:47;;;;;;;31.83;21.25;;;-1.30;99.90;;;;;;5020404;28;20029;-77
2022/01/15 07:51:12;;;;;;;30.08;21.17;;;-1.40;99.90;;;;;;5016383;28;20086;-79
2022/01/15 07:53:39;;;;;;;27.50;20.60;;;-1.50;99.90;;;;;;5017836;28;20087;-77
2022/01/15 07:56:04;;;;;;;33.75;22.55;;;-1.50;99.90;;;;;;5016603;28;20033;-77
2022/01/15 07:58:30;;;;;;;29.42;20.80;;;-1.40;99.90;;;;;;5015270;28;20068;-77
2022/01/15 08:00:55;;;;;;;29.42;21.38;;;-1.30;99.90;;;;;;5014899;28;20512;-78
2022/01/15 08:03:21;;;;;;;30.08;20.95;;;-1.30;99.90;;;;;;5014957;28;20022;-78
2022/01/15 08:05:47;;;;;;;34.17;20.63;;;-1.20;99.90;;;;;;5015532;28;20436;-78
2022/01/15 08:08:12;;;;;;;32.20;20.48;;;-1.20;99.90;;;;;;5014610;28;20025;-77
2022/01/15 08:10:38;;;;;;;37.63;22.17;;;-1.10;99.90;;;;;;5015231;28;20029;-77
2022/01/15 08:13:04;;;;;;;31.02;20.45;;;-1.00;99.90;;;;;;5016880;28;20018;-78
2022/01/15 08:15:29;;;;;;;27.48;21.45;;;-1.00;99.90;;;;;;5017851;28;20481;-77
2022/01/15 08:17:55;;;;;;;26.73;19.45;;;-0.90;99.90;;;;;;5018891;28;20445;-78
2022/01/15 08:20:21;;;;;;;41.88;19.77;;;-0.90;99.90;;;;;;5017440;28;20029;-77
2022/01/15 08:22:46;;;;;;;29.45;20.33;;;-0.90;99.90;;;;;;5025118;28;20041;-76
2022/01/15 08:25:16;;;;;;;26.90;19.58;;;-1.00;99.90;;;;;;5018095;28;20489;-77
2022/01/15 08:27:42;;;;;;;31.52;21.50;;;-0.90;99.90;;;;;;5015712;28;20038;-78
2022/01/15 08:30:08;;;;;;;28.05;20.58;;;-0.90;99.90;;;;;;5017430;28;20018;-78
2022/01/15 08:32:34;;;;;;;38.80;22.10;;;-0.90;99.90;;;;;;5016385;28;20105;-77
2022/01/15 08:35:00;;;;;;;27.73;19.98;;;-0.80;99.90;;;;;;5017720;28;20084;-77
2022/01/15 08:37:26;;;;;;;29.60;20.05;;;-0.70;99.90;;;;;;5014723;28;20111;-77
2022/01/15 08:39:53;;;;;;;29.15;20.90;;;-0.50;99.90;;;;;;5015508;28;20189;-77
2022/01/15 08:42:18;;;;;;;27.55;20.83;;;-0.50;99.90;;;;;;5014288;28;20038;-78
2022/01/15 08:44:45;;;;;;;29.40;21.30;;;-0.40;99.90;;;;;;5015382;28;20029;-77
2022/01/15 08:47:11;;;;;;;31.80;21.33;;;-0.20;99.90;;;;;;5015354;28;20539;-77
2022/01/15 08:49:36;;;;;;;32.90;20.30;;;-0.30;99.90;;;;;;5014516;28;20499;-77
2022/01/15 08:52:03;;;;;;;29.48;20.98;;;-0.40;99.90;;;;;;5014890;28;20026;-78
2022/01/15 08:54:29;;;;;;;38.72;24.00;;;-0.20;99.90;;;;;;5013449;28;20065;-77
2022/01/15 08:56:55;;;;;;;29.95;22.42;;;0.00;99.90;;;;;;5014358;28;20041;-77
2022/01/15 08:59:21;;;;;;;31.73;19.98;;;0.00;99.90;;;;;;5021165;28;20583;-77
2022/01/15 09:01:48;;;;;;;27.92;21.42;;;0.10;99.90;;;;;;5013640;28;20528;-77
2022/01/15 09:04:14;;;;;;;28.52;21.33;;;0.20;99.90;;;;;;5015109;28;20025;-78
2022/01/15 09:06:43;;;;;;;36.92;22.63;;;0.20;99.90;;;;;;5015876;28;20113;-77
2022/01/15 09:09:08;;;;;;;31.13;22.40;;;0.10;99.90;;;;;;5014319;28;20101;-77
2022/01/15 09:11:34;;;;;;;28.60;19.85;;;0.10;99.90;;;;;;5018264;28;20061;-77
2022/01/15 09:14:00;;;;;;;26.10;20.98;;;0.20;99.90;;;;;;5017339;28;20076;-77
2022/01/15 09:16:25;;;;;;;29.38;21.50;;;0.30;99.90;;;;;;5015128;28;20034;-76
2022/01/15 09:18:51;;;;;;;27.08;21.08;;;0.40;99.90;;;;;;5014085;28;20034;-77
2022/01/15 09:21:17;;;;;;;27.98;20.55;;;0.40;99.90;;;;;;5016135;28;20033;-78
2022/01/15 09:23:42;;;;;;;30.67;23.15;;;0.50;99.90;;;;;;5016573;28;20026;-78
2022/01/15 09:26:18;;;;;;;27.35;20.45;;;0.50;99.90;;;;;;5013134;28;20045;-77
2022/01/15 09:31:29;;;;;;;33.03;21.50;;;0.60;99.90;;;;;;5019769;28;20049;-77
2022/01/15 09:33:54;;;;;;;34.60;22.70;;;0.80;99.90;;;;;;5015478;28;20393;-77
2022/01/15 09:36:20;;;;;;;28.67;21.80;;;0.90;99.90;;;;;;5013141;28;20038;-77
2022/01/15 09:38:46;;;;;;;29.52;22.27;;;1.00;99.90;;;;;;5012868;28;20026;-78
2022/01/15 09:41:12;;;;;;;28.48;21.80;;;1.00;99.90;;;;;;5018457;28;20022;-77
2022/01/15 09:43:39;;;;;;;30.65;22.27;;;1.00;99.90;;;;;;5020938;28;20034;-77
2022/01/15 09:46:08;;;;;;;29.65;21.60;;;1.10;99.90;;;;;;5019265;28;20036;-77
2022/01/15 09:48:38;;;;;;;32.35;23.10;;;1.10;99.90;;;;;;5020301;28;20022;-78
2022/01/15 09:51:04;;;;;;;33.20;21.67;;;1.10;99.90;;;;;;5018988;28;20026;-78
2022/01/15 09:53:32;;;;;;;30.25;21.73;;;1.10;99.90;;;;;;5020994;28;20025;-77
2022/01/15 09:55:57;;;;;;;30.27;20.58;;;1.30;99.90;;;;;;5019809;28;20022;-77
2022/01/15 09:58:23;;;;;;;29.17;21.90;;;1.40;99.90;;;;;;5019136;28;20038;-77
2022/01/15 10:00:48;;;;;;;29.75;21.42;;;1.40;99.90;;;;;;5021081;28;20026;-78
2022/01/15 10:03:14;;;;;;;30.40;23.17;;;1.50;99.90;;;;;;5020934;28;20150;-77
2022/01/15 10:05:39;;;;;;;32.25;22.90;;;1.60;99.90;;;;;;5020088;28;20036;-77
2022/01/15 10:08:12;;;;;;;31.85;23.05;;;1.60;99.90;;;;;;5019714;28;20549;-77
2022/01/15 10:10:40;;;;;;;30.25;20.98;;;1.60;99.90;;;;;;5020300;28;20025;-76
2022/01/15 10:13:19;;;;;;;30.50;22.08;;;1.70;99.90;;;;;;5019838;28;20057;-77
2022/01/15 10:15:50;;;;;;;29.35;22.60;;;1.80;99.90;;;;;;5022158;28;20421;-78
2022/01/15 10:18:31;;;;;;;32.13;23.10;;;1.80;99.90;;;;;;5018580;28;20386;-77
2022/01/15 10:21:13;;;;;;;28.90;21.00;;;1.80;99.90;;;;;;5020488;28;20033;-77
2022/01/15 10:23:53;;;;;;;24.27;19.33;;;2.00;99.90;;;;;;5021825;28;20034;-77
2022/01/15 10:26:31;;;;;;;30.35;22.10;;;2.00;99.90;;;;;;5036809;28;20021;-78
2022/01/15 10:29:00;;;;;;;29.02;21.38;;;2.00;99.90;;;;;;5039229;28;20096;-76
2022/01/15 10:31:43;;;;;;;35.75;22.70;;;2.10;99.90;;;;;;5037270;28;20124;-76
2022/01/15 10:34:37;;;;;;;30.23;23.38;;;2.10;99.90;;;;;;5037731;28;20033;-76
2022/01/15 10:37:12;;;;;;;27.42;20.73;;;1.70;99.90;;;;;;5025587;28;20101;-78
2022/01/15 10:39:38;;;;;;;32.10;21.33;;;1.90;99.90;;;;;;5019942;28;20018;-77
2022/01/15 10:42:16;;;;;;;32.97;22.35;;;1.90;99.90;;;;;;5021850;28;20018;-77
2022/01/15 10:44:42;;;;;;;30.02;23.65;;;2.00;99.90;;;;;;5019306;28;20046;-78
2022/01/15 10:47:13;;;;;;;30.05;22.60;;;1.90;99.90;;;;;;5017157;28;20474;-77
2022/01/15 10:49:40;;;;;;;30.42;23.45;;;1.90;99.90;;;;;;5018217;28;20021;-77
2022/01/15 10:52:26;;;;;;;29.45;24.13;;;2.10;99.90;;;;;;5018555;28;20501;-77
2022/01/15 10:54:57;;;;;;;31.92;21.63;;;2.30;99.90;;;;;;5021441;28;20137;-76
2022/01/15 10:57:25;;;;;;;30.50;22.67;;;2.40;99.90;;;;;;5020690;28;20021;-77
2022/01/15 11:00:18;;;;;;;30.75;21.50;;;2.50;99.90;;;;;;5023993;28;20034;-76
2022/01/15 11:02:56;;;;;;;28.23;20.75;;;2.50;99.90;;;;;;5022403;28;20034;-78
2022/01/15 11:05:23;;;;;;;25.17;19.83;;;2.40;99.90;;;;;;5019839;28;20026;-77
2022/01/15 11:07:49;;;;;;;28.38;20.83;;;2.30;99.90;;;;;;5017470;28;20081;-78
2022/01/15 11:10:14;;;;;;;26.10;21.30;;;2.20;99.90;;;;;;5016772;28;20026;-76
2022/01/15 11:12:40;;;;;;;23.85;20.95;;;2.40;99.90;;;;;;5018816;28;20017;-77
2022/01/15 11:15:07;;;;;;;27.60;22.25;;;2.50;99.90;;;;;;5018754;28;20085;-77
2022/01/15 11:17:33;;;;;;;23.85;19.92;;;2.60;99.90;;;;;;5018076;28;20474;-78
2022/01/15 11:20:02;;;;;;;26.05;20.13;;;2.70;99.90;;;;;;5018410;28;20034;-78
2022/01/15 11:22:28;;;;;;;22.15;19.33;;;2.50;99.90;;;;;;5015819;28;20129;-78
2022/01/15 11:24:54;;;;;;;22.17;18.85;;;2.70;99.90;;;;;;5015424;28;20034;-77
2022/01/15 11:27:20;;;;;;;21.38;17.85;;;2.80;99.90;;;;;;5015254;28;20030;-77
2022/01/15 11:29:46;;;;;;;22.80;18.70;;;2.80;99.90;;;;;;5015170;28;20367;-77
2022/01/15 11:32:13;;;;;;;27.75;20.27;;;2.60;99.90;;;;;;5016409;28;20030;-77
2022/01/15 11:34:41;;;;;;;27.70;21.58;;;2.70;99.90;;;;;;5015120;28;20079;-77
2022/01/15 11:37:19;;;;;;;22.85;19.48;;;2.90;99.90;;;;;;5015152;28;20038;-77
2022/01/15 11:39:46;;;;;;;27.73;19.20;;;3.00;99.90;;;;;;5014948;28;20477;-77
2022/01/15 11:42:35;;;;;;;23.70;19.25;;;3.10;99.90;;;;;;5015818;28;20041;-77
2022/01/15 11:45:02;;;;;;;23.33;19.55;;;3.20;99.90;;;;;;5015398;28;20026;-76
2022/01/15 11:47:27;;;;;;;24.42;19.33;;;3.30;99.90;;;;;;5012907;28;20026;-77
2022/01/15 11:49:57;;;;;;;25.60;20.55;;;3.20;99.90;;;;;;5013960;28;20050;-77
2022/01/15 11:52:23;;;;;;;26.40;20.05;;;3.30;99.90;;;;;;5021268;28;20025;-77
2022/01/15 11:54:49;;;;;;;25.45;20.40;;;3.40;99.90;;;;;;5029084;28;20022;-77
2022/01/15 11:57:22;;;;;;;29.40;20.13;;;3.50;99.90;;;;;;5025796;28;20044;-77
2022/01/15 11:59:49;;;;;;;22.73;18.35;;;3.60;99.90;;;;;;5025647;28;20025;-77
2022/01/15 12:02:36;;;;;;;26.45;20.00;;;3.60;99.90;;;;;;5018804;28;20460;-77
2022/01/15 12:05:17;;;;;;;27.33;20.60;;;3.50;99.90;;;;;;5015871;28;20034;-77
2022/01/15 12:07:47;;;;;;;27.05;19.67;;;3.60;99.90;;;;;;5020755;28;20022;-76
2022/01/15 12:10:15;;;;;;;26.55;22.17;;;3.60;99.90;;;;;;5014543;28;20037;-76
2022/01/15 12:12:52;;;;;;;24.40;19.85;;;3.60;99.90;;;;;;5014349;28;20105;-76
2022/01/15 12:15:26;;;;;;;27.85;20.00;;;3.70;99.90;;;;;;5013147;28;20112;-77
2022/01/15 12:17:54;;;;;;;26.33;21.13;;;3.60;99.90;;;;;;5016525;28;20097;-78
2022/01/15 12:20:25;;;;;;;28.08;20.75;;;3.80;99.90;;;;;;5015113;28;20052;-77
2022/01/15 12:22:55;;;;;;;27.65;19.70;;;3.80;99.90;;;;;;5013642;28;20076;-77
2022/01/15 12:25:21;;;;;;;25.47;20.23;;;3.80;99.90;;;;;;5013765;28;20124;-77
2022/01/15 12:28:00;;;;;;;24.77;19.42;;;3.90;99.90;;;;;;5014841;28;20316;-77
2022/01/15 12:30:30;;;;;;;25.95;20.80;;;3.80;99.90;;;;;;5015541;28;20458;-78
2022/01/15 12:33:00;;;;;;;28.48;21.73;;;3.90;99.90;;;;;;5014870;28;20466;-77
2022/01/15 12:35:29;;;;;;;26.17;20.05;;;3.90;99.90;;;;;;5014941;28;20070;-76
2022/01/15 12:37:55;;;;;;;30.85;21.77;;;3.80;99.90;;;;;;5013170;28;20109;-76
2022/01/15 12:40:26;;;;;;;26.48;20.67;;;3.90;99.90;;;;;;5014989;28;20022;-78
2022/01/15 12:42:56;;;;;;;29.65;20.92;;;3.90;99.90;;;;;;5015174;28;20025;-78
2022/01/15 12:45:22;;;;;;;27.03;20.03;;;4.00;99.90;;;;;;5015597;28;20030;-78
2022/01/15 12:47:48;;;;;;;24.88;21.08;;;4.00;99.90;;;;;;5012808;28;20798;-77
2022/01/15 12:50:14;;;;;;;30.75;22.58;;;4.00;99.90;;;;;;5014230;28;20026;-78
2022/01/15 12:52:40;;;;;;;32.70;22.65;;;4.00;99.90;;;;;;5017520;28;20585;-79
2022/01/15 12:55:07;;;;;;;32.92;23.45;;;4.10;99.90;;;;;;5020918;28;20022;-78